Impacts METAR Board INFO
IDs:

KMDW - Chicago/Midway Intl, IL, US

Updated at: 0839 UTC 18 Dec 2017
Potential Impact None Slight Moderate High
Time17/20Z 17/21Z 17/22Z 17/23Z 18/00Z 18/01Z 18/02Z 18/03Z 18/04Z 18/05Z 18/06Z 18/07Z 18/08Z
VIS10 10 10 10 10 10 10 10 10 10 10 9 10
CIG220 130 120 110 100 100 80 48 33 40 40 28 13
CoverOVCOVCOVCOVCOVCOVCOVCOVCOVCOVCOVCOVCOVC
FltCatVFRVFRVFRVFRVFRVFRVFRVFRVFRVFRVFRMVFRMVFR
WX--------------------------
WDir2202600002502102400200220210210
WSpd4 4 0 0 0 3 4 4 0 5 7 6 9
WGst-- -- -- -- -- -- -- -- -- -- -- -- --
Raw hourly METARs
KMDW 171953Z 22004KT 10SM FEW130 BKN220 OVC250 07/00 A2998 RMK AO2 SLP158 T00720000
KMDW 172053Z 26004KT 10SM BKN130 OVC250 08/M01 A2998 RMK AO2 SLP159 T00831006 55016
KMDW 172153Z 00000KT 10SM BKN120 OVC250 08/M01 A2998 RMK AO2 SLP158 T00781006
KMDW 172253Z 00000KT 10SM FEW075 BKN110 OVC250 07/00 A2998 RMK AO2 SLP158 T00670000
KMDW 172353Z 00000KT 10SM BKN100 OVC250 07/00 A2999 RMK AO2 SLP161 T00670000 10083 20033 53002
KMDW 180053Z 25003KT 10SM OVC100 06/01 A3000 RMK AO2 SLP166 T00610006
KMDW 180153Z 21004KT 10SM SCT050 BKN080 OVC100 07/00 A3000 RMK AO2 SLP167 T00720000
KMDW 180253Z 24004KT 10SM SCT027 OVC048 07/02 A2999 RMK AO2 SLP163 T00670017 50001
KMDW 180353Z 00000KT 10SM BKN033 OVC060 06/01 A2999 RMK AO2 SLP161 T00610006
KMDW 180453Z 20005KT 10SM BKN040 OVC060 07/03 A3000 RMK AO2 SLP165 T00670028
KMDW 180553Z 22007KT 10SM BKN040 OVC070 07/03 A2997 RMK AO2 SLP157 T00670033 10072 20056 400830000 58005
KMDW 180653Z 21006KT 9SM BKN028 BKN034 OVC044 06/04 A2995 RMK AO2 SLP150 T00610039
KMDW 180753Z 21009KT 10SM BKN013 OVC016 06/04 A2994 RMK AO2 SLP145 T00610044